Terminal Aerodrome Forecast
Issued by NWS

Home | Current Version | Previous Version | Text Only | Print | Product List | Glossary On
Versions: 1 2 3 4 5 6 7 8 9 10 11 12 13 14 15 16 17 18 19 20 21 22 23 24 25 26 27 28
000
FTUS42 KCAE 250530
TAFCUB
TAF
KCUB 250530Z 2506/2606 18003KT P6SM BKN200
     FM251100 18004KT P6SM BKN050
     FM251400 17008KT P6SM BKN050
     FM260000 15004KT P6SM SCT050 BKN100=

USA.gov is the U.S. government's official web portal to all federal, state and local government web resources and services.